Bear Keeper — WDI4078 — position and weather

sailwx.info

Track history (hours):
 
Tides and Currents Weather Stations Pressure Air Temp Water Temp Dewpoint Dewpoint Depression Visibility Wind Speed Wind Dir Waves Ship Positions

Bear Keeper

Owner: Wingerter, Frank, green cove springs, FL. More information available from US FCC via Universal Licensing System and Coast Guard Vessel Documentation Center.

Last reported at 2017-Sep-15 12:22 UTC. Time now 2017-Sep-21 10:44 UTC.
Position N 39°17' W 076°13'.

Length 12 m.

Type: Sailing vessel. MMSI: 367694890.

Date/timePositionNaut miles runAvg speedWind from/ knotsBaromVisibWave heightAir tempDewpointWater temp
2017-Sep-15 12:22N 39°17' W 076°13'5 0.2
2017-Sep-14 13:36N 39°21' W 076°10'1 3.3
2017-Sep-14 13:22N 39°21' W 076°11'1 3.0
2017-Sep-14 13:00N 39°20' W 076°12'3 5.2
2017-Sep-14 12:29N 39°21' W 076°09'3 6.8
2017-Sep-14 12:00N 39°23' W 076°05'3 4.8
2017-Sep-14 11:26N 39°22' W 076°01'0 0.0
2017-Sep-12 23:40N 39°22' W 076°01'0 0.3
2017-Sep-12 22:41N 39°22' W 076°02'2 5.2
2017-Sep-12 22:20N 39°24' W 076°03'2 7.3
2017-Sep-12 22:00N 39°26' W 076°01'4 7.6
2017-Sep-12 21:30N 39°29' W 075°57'4 7.3
2017-Sep-12 21:00N 39°31' W 075°54'4 7.1
2017-Sep-12 20:30N 39°32' W 075°49'3 6.8
2017-Sep-12 20:00N 39°32' W 075°45'3 6.5
2017-Sep-12 19:30N 39°33' W 075°41'3 5.8
2017-Sep-12 19:01N 39°33' W 075°37'3 5.8
2017-Sep-12 18:30N 39°33' W 075°33'4 8.1
2017-Sep-12 18:01N 39°29' W 075°33'4 7.8
2017-Sep-12 17:30N 39°26' W 075°32'4 7.3
2017-Sep-12 17:00N 39°23' W 075°28'3 6.8
2017-Sep-12 16:30N 39°20' W 075°26'3 7.0
2017-Sep-12 16:00N 39°18' W 075°23'3 6.0
2017-Sep-12 15:30N 39°15' W 075°20'3 5.7
2017-Sep-12 15:00N 39°13' W 075°18'3 5.9
2017-Sep-12 14:28N 39°10' W 075°16'3 6.4
2017-Sep-12 13:59N 39°08' W 075°13'3 6.2
2017-Sep-12 13:29N 39°06' W 075°10'3 6.4
2017-Sep-12 13:00N 39°04' W 075°07'3 6.3
2017-Sep-12 12:31N 39°02' W 075°04'10 0.4
2017-Sep-11 13:11N 38°57' W 074°53'0 0.0
2017-Sep-11 13:00N 38°57' W 074°53'50 6.3
2017-Sep-11 05:05N 39°34' W 074°09'2 6.7
2017-Sep-11 04:51N 39°35' W 074°08'2 6.7
2017-Sep-11 04:29N 39°37' W 074°07'3 6.7
2017-Sep-11 04:00N 39°40' W 074°05'3 6.5
2017-Sep-11 03:30N 39°43' W 074°04'3 6.5
2017-Sep-11 02:58N 39°47' W 074°03'50 6.4
2017-Sep-10 19:07N 40°37' W 074°02'1 8.3
2017-Sep-10 18:58N 40°38' W 074°03'3 7.1
2017-Sep-10 18:30N 40°41' W 074°01'  
Track history (hours):
 
Tides and Currents Weather Stations Pressure Air Temp Water Temp Dewpoint Dewpoint Depression Visibility Wind Speed Wind Dir Waves Ship Positions

Bear Keeper

Owner: Wingerter, Frank, green cove springs, FL. More information available from US FCC via Universal Licensing System and Coast Guard Vessel Documentation Center.

Last reported at 2017-Sep-15 12:22 UTC. Time now 2017-Sep-21 10:44 UTC.
Position N 39°17' W 076°13'.

Length 12 m.

Type: Sailing vessel. MMSI: 367694890.

Date/timePositionNaut miles runAvg speedWind from/ knotsBaromVisibWave heightAir tempDewpointWater temp
2017-Sep-15 12:22N 39°17' W 076°13'5 0.2
2017-Sep-14 13:36N 39°21' W 076°10'1 3.3
2017-Sep-14 13:22N 39°21' W 076°11'1 3.0
2017-Sep-14 13:00N 39°20' W 076°12'3 5.2
2017-Sep-14 12:29N 39°21' W 076°09'3 6.8
2017-Sep-14 12:00N 39°23' W 076°05'3 4.8
2017-Sep-14 11:26N 39°22' W 076°01'0 0.0
2017-Sep-12 23:40N 39°22' W 076°01'0 0.3
2017-Sep-12 22:41N 39°22' W 076°02'2 5.2
2017-Sep-12 22:20N 39°24' W 076°03'2 7.3
2017-Sep-12 22:00N 39°26' W 076°01'4 7.6
2017-Sep-12 21:30N 39°29' W 075°57'4 7.3
2017-Sep-12 21:00N 39°31' W 075°54'4 7.1
2017-Sep-12 20:30N 39°32' W 075°49'3 6.8
2017-Sep-12 20:00N 39°32' W 075°45'3 6.5
2017-Sep-12 19:30N 39°33' W 075°41'3 5.8
2017-Sep-12 19:01N 39°33' W 075°37'3 5.8
2017-Sep-12 18:30N 39°33' W 075°33'4 8.1
2017-Sep-12 18:01N 39°29' W 075°33'4 7.8
2017-Sep-12 17:30N 39°26' W 075°32'4 7.3
2017-Sep-12 17:00N 39°23' W 075°28'3 6.8
2017-Sep-12 16:30N 39°20' W 075°26'3 7.0
2017-Sep-12 16:00N 39°18' W 075°23'3 6.0
2017-Sep-12 15:30N 39°15' W 075°20'3 5.7
2017-Sep-12 15:00N 39°13' W 075°18'3 5.9
2017-Sep-12 14:28N 39°10' W 075°16'3 6.4
2017-Sep-12 13:59N 39°08' W 075°13'3 6.2
2017-Sep-12 13:29N 39°06' W 075°10'3 6.4
2017-Sep-12 13:00N 39°04' W 075°07'3 6.3
2017-Sep-12 12:31N 39°02' W 075°04'10 0.4
2017-Sep-11 13:11N 38°57' W 074°53'0 0.0
2017-Sep-11 13:00N 38°57' W 074°53'50 6.3
2017-Sep-11 05:05N 39°34' W 074°09'2 6.7
2017-Sep-11 04:51N 39°35' W 074°08'2 6.7
2017-Sep-11 04:29N 39°37' W 074°07'3 6.7
2017-Sep-11 04:00N 39°40' W 074°05'3 6.5
2017-Sep-11 03:30N 39°43' W 074°04'3 6.5
2017-Sep-11 02:58N 39°47' W 074°03'50 6.4
2017-Sep-10 19:07N 40°37' W 074°02'1 8.3
2017-Sep-10 18:58N 40°38' W 074°03'3 7.1
2017-Sep-10 18:30N 40°41' W 074°01'  

Dump ship's entire track history